Philippa — SE7932 — position and weather

sailwx.info

Track history (hours):
 
Tides and Currents Weather Stations Pressure Air Temp Water Temp Dewpoint Dewpoint Depression Visibility Wind Speed Wind Dir Waves Ship Positions

Philippa

Last reported at 2017-Oct-10 12:43 UTC. Time now 2017-Dec-17 06:26 UTC.
Position N 37°09' E 025°13'.
Warning: this ship's position is months out of date.

Length 12 m.

Type: Pleasure craft. MMSI: 265739030.

Date/timePositionNaut miles runAvg speedWind from/ knotsBaromVisibWave heightAir tempDewpointWater temp
2017-Oct-10 12:43N 37°09' E 025°13'0 0.0
2017-Oct-09 13:11N 37°09' E 025°14'0 0.3
2017-Oct-09 12:59N 37°09' E 025°14'0 0.0
2017-Oct-09 12:02N 37°09' E 025°14'0 0.1
2017-Oct-09 11:43N 37°09' E 025°14'1 3.7
2017-Oct-09 11:24N 37°10' E 025°13'12 6.2
2017-Oct-09 09:31N 37°16' E 025°01'0 5.2
2017-Oct-09 09:26N 37°17' E 025°01'2 5.3
2017-Oct-09 09:00N 37°18' E 024°59'3 5.7
2017-Oct-09 08:30N 37°20' E 024°56'3 5.7
2017-Oct-09 08:01N 37°22' E 024°53'  
2017-Oct-03 10:42N 37°09' E 024°54'1 7.4
2017-Oct-03 10:30N 37°09' E 024°56'4 7.2
2017-Oct-03 10:00N 37°09' E 025°00'11 6.3
2017-Oct-03 08:17N 37°09' E 025°14'  
Track history (hours):
 
Tides and Currents Weather Stations Pressure Air Temp Water Temp Dewpoint Dewpoint Depression Visibility Wind Speed Wind Dir Waves Ship Positions

Philippa

Last reported at 2017-Oct-10 12:43 UTC. Time now 2017-Dec-17 06:26 UTC.
Position N 37°09' E 025°13'.
Warning: this ship's position is months out of date.

Length 12 m.

Type: Pleasure craft. MMSI: 265739030.

Date/timePositionNaut miles runAvg speedWind from/ knotsBaromVisibWave heightAir tempDewpointWater temp
2017-Oct-10 12:43N 37°09' E 025°13'0 0.0
2017-Oct-09 13:11N 37°09' E 025°14'0 0.3
2017-Oct-09 12:59N 37°09' E 025°14'0 0.0
2017-Oct-09 12:02N 37°09' E 025°14'0 0.1
2017-Oct-09 11:43N 37°09' E 025°14'1 3.7
2017-Oct-09 11:24N 37°10' E 025°13'12 6.2
2017-Oct-09 09:31N 37°16' E 025°01'0 5.2
2017-Oct-09 09:26N 37°17' E 025°01'2 5.3
2017-Oct-09 09:00N 37°18' E 024°59'3 5.7
2017-Oct-09 08:30N 37°20' E 024°56'3 5.7
2017-Oct-09 08:01N 37°22' E 024°53'  
2017-Oct-03 10:42N 37°09' E 024°54'1 7.4
2017-Oct-03 10:30N 37°09' E 024°56'4 7.2
2017-Oct-03 10:00N 37°09' E 025°00'11 6.3
2017-Oct-03 08:17N 37°09' E 025°14'  

Dump ship's entire track history